Time;durP1;ratioP1;P1;durP2;ratioP2;P2;SDS_P1;SDS_P2;PMS_P1;PMS_P2;Temp;Humidity;BMP_temperature;BMP_pressure;BME280_temperature;BME280_humidity;BME280_pressure;Samples;Min_cycle;Max_cycle;Signal;HPM_P1;HPM_P2
2022/07/04 00:00:29;;;;;;;0.68;0.68;;;18.10;49.90;;;;;;4906486;29;20167;-49
2022/07/04 00:03:06;;;;;;;;;;;18.00;50.00;;;;;;4909307;29;20044;-52
2022/07/04 00:05:36;;;;;;;0.65;0.57;;;18.10;49.50;;;;;;4880711;29;19975;-46
2022/07/04 00:08:05;;;;;;;0.68;0.68;;;18.00;49.90;;;;;;4905362;29;20052;-49
2022/07/04 00:10:32;;;;;;;1.13;0.60;;;17.90;49.70;;;;;;4903268;29;20044;-50
2022/07/04 00:12:59;;;;;;;1.85;0.60;;;17.90;50.10;;;;;;4894197;29;20075;-49
2022/07/04 00:15:25;;;;;;;1.08;0.60;;;17.80;50.20;;;;;;4902915;29;20040;-48
2022/07/04 00:17:52;;;;;;;1.13;0.93;;;17.80;50.30;;;;;;4907087;29;20044;-46
2022/07/04 00:20:21;;;;;;;0.70;0.60;;;17.70;50.50;;;;;;4910658;29;20047;-49
2022/07/04 00:22:50;;;;;;;2.53;0.80;;;17.70;50.60;;;;;;4893177;29;20090;-52
2022/07/04 00:25:17;;;;;;;1.15;0.90;;;17.60;50.80;;;;;;4904686;29;20575;-49
2022/07/04 00:27:46;;;;;;;0.82;0.82;;;17.60;50.70;;;;;;4907327;29;20609;-48
2022/07/04 00:30:13;;;;;;;2.35;0.88;;;17.60;50.80;;;;;;4898379;29;20054;-49
2022/07/04 00:32:42;;;;;;;1.63;0.90;;;17.50;51.40;;;;;;4900202;29;20502;-47
2022/07/04 00:35:10;;;;;;;1.38;0.80;;;17.50;50.80;;;;;;4908759;29;20114;-51
2022/07/04 00:37:36;;;;;;;2.25;0.70;;;17.40;50.90;;;;;;4895793;29;20663;-47
2022/07/04 00:40:06;;;;;;;1.20;0.73;;;17.40;50.90;;;;;;4896845;29;20579;-50
2022/07/04 00:42:40;;;;;;;1.05;0.50;;;17.30;51.20;;;;;;4897989;29;20103;-48
2022/07/04 00:45:12;;;;;;;1.42;0.77;;;17.30;51.20;;;;;;4903477;29;20104;-48
2022/07/04 00:47:42;;;;;;;1.07;0.90;;;17.20;51.30;;;;;;4915263;29;20543;-49
2022/07/04 00:50:08;;;;;;;1.73;0.73;;;17.20;51.10;;;;;;4896774;29;20056;-48
2022/07/04 00:52:37;;;;;;;2.70;0.68;;;17.20;51.40;;;;;;4895654;29;20036;-46
2022/07/04 00:55:04;;;;;;;1.00;0.70;;;17.20;51.40;;;;;;4904031;29;20067;-47
2022/07/04 00:57:31;;;;;;;1.13;1.00;;;17.10;51.50;;;;;;4913796;29;20092;-49
2022/07/04 01:00:01;;;;;;;2.80;0.90;;;17.10;51.60;;;;;;4892477;29;20878;-50
2022/07/04 01:02:27;;;;;;;2.63;0.80;;;17.00;51.50;;;;;;4906520;29;20048;-46
2022/07/04 01:04:54;;;;;;;1.52;0.77;;;17.00;51.50;;;;;;4907343;29;20099;-49
2022/07/04 01:07:24;;;;;;;0.68;0.68;;;17.00;51.60;;;;;;4913325;29;20640;-50
2022/07/04 01:09:52;;;;;;;1.60;0.60;;;16.90;51.50;;;;;;4897285;29;20108;-50
2022/07/04 01:12:29;;;;;;;3.85;1.00;;;16.90;51.60;;;;;;4905227;29;20036;-47
2022/07/04 01:14:57;;;;;;;1.05;0.85;;;16.80;52.40;;;;;;4897849;29;20060;-50
2022/07/04 01:17:24;;;;;;;0.93;0.77;;;16.80;51.70;;;;;;4897710;29;20091;-47
2022/07/04 01:19:54;;;;;;;1.80;1.02;;;16.80;51.80;;;;;;4894146;29;20044;-46
2022/07/04 01:22:22;;;;;;;0.95;0.82;;;16.70;51.90;;;;;;4904014;29;20131;-49
2022/07/04 01:24:53;;;;;;;1.15;0.80;;;16.70;51.80;;;;;;4910715;29;20088;-50
2022/07/04 01:27:30;;;;;;;1.95;0.75;;;16.70;51.90;;;;;;4889056;29;20049;-47
2022/07/04 01:29:57;;;;;;;1.02;0.95;;;16.60;52.40;;;;;;4905530;29;20095;-49
2022/07/04 01:32:26;;;;;;;1.10;0.52;;;16.60;51.80;;;;;;4906750;29;20131;-47
2022/07/04 01:34:56;;;;;;;1.33;0.90;;;16.60;51.90;;;;;;4912403;29;20059;-51
2022/07/04 01:37:23;;;;;;;3.15;0.75;;;16.60;51.90;;;;;;4889069;29;20068;-47
2022/07/04 01:39:49;;;;;;;1.85;1.00;;;16.50;52.10;;;;;;4901711;29;20053;-49
2022/07/04 01:42:16;;;;;;;2.33;0.88;;;16.50;52.20;;;;;;4905190;29;20572;-46
2022/07/04 01:44:43;;;;;;;1.02;0.70;;;16.50;52.20;;;;;;4911958;29;20056;-46
2022/07/04 01:47:10;;;;;;;0.65;0.65;;;16.50;52.10;;;;;;4898881;29;20048;-48
2022/07/04 01:49:37;;;;;;;1.42;0.90;;;16.50;52.40;;;;;;4906327;29;20048;-46
2022/07/04 01:52:11;;;;;;;3.13;0.90;;;16.40;52.30;;;;;;4913399;29;20131;-47
2022/07/04 01:54:41;;;;;;;0.80;0.63;;;16.40;52.30;;;;;;4903983;29;20052;-46
2022/07/04 01:57:12;;;;;;;1.10;0.75;;;16.30;52.30;;;;;;4897516;29;20041;-46
2022/07/04 02:02:28;;;;;;;1.55;0.95;;;16.30;52.50;;;;;;4913630;29;20044;-47
2022/07/04 02:04:55;;;;;;;2.22;0.82;;;16.30;52.40;;;;;;4897070;29;20076;-49
2022/07/04 02:07:24;;;;;;;2.00;0.80;;;16.30;52.60;;;;;;4906477;29;20564;-47
2022/07/04 02:09:53;;;;;;;1.35;0.95;;;16.20;52.80;;;;;;4910407;29;20598;-47
2022/07/04 02:15:15;;;;;;;0.65;0.65;;;16.10;52.60;;;;;;4897803;29;20048;-50
2022/07/04 02:17:42;;;;;;;1.67;0.80;;;16.10;52.80;;;;;;4905419;29;20480;-48
2022/07/04 02:20:16;;;;;;;0.52;0.52;;;16.10;52.80;;;;;;4905640;29;20114;-48
2022/07/04 02:22:46;;;;;;;1.52;0.80;;;16.10;53.00;;;;;;4913308;29;20044;-49
2022/07/04 02:25:23;;;;;;;1.38;0.75;;;16.10;53.30;;;;;;4900894;29;20032;-46
2022/07/04 02:27:54;;;;;;;1.13;0.73;;;16.00;53.70;;;;;;4899222;29;20047;-48
2022/07/04 02:30:23;;;;;;;0.77;0.70;;;16.00;53.60;;;;;;4875800;29;20045;-47
2022/07/04 02:32:53;;;;;;;1.40;0.90;;;16.00;53.70;;;;;;4886910;29;20041;-50
2022/07/04 02:35:22;;;;;;;2.00;0.60;;;16.00;53.70;;;;;;4891622;29;20040;-49
2022/07/04 02:37:51;;;;;;;1.92;0.98;;;16.00;53.60;;;;;;4901541;29;20111;-49
2022/07/04 02:40:17;;;;;;;2.47;1.30;;;16.00;53.60;;;;;;4912510;29;20456;-49
2022/07/04 02:42:44;;;;;;;0.65;0.60;;;16.00;53.60;;;;;;4909659;29;20079;-50
2022/07/04 02:45:12;;;;;;;1.63;0.90;;;16.00;53.70;;;;;;4902166;29;20044;-50
2022/07/04 02:47:38;;;;;;;1.08;0.98;;;16.00;53.70;;;;;;4903564;29;20095;-49
2022/07/04 02:50:06;;;;;;;0.77;0.77;;;15.90;53.80;;;;;;4893849;29;20044;-46
2022/07/04 02:52:32;;;;;;;0.82;0.75;;;15.90;53.90;;;;;;4888732;29;20069;-49
2022/07/04 02:54:59;;;;;;;1.17;0.70;;;15.90;53.80;;;;;;4932527;23;20052;-46
2022/07/04 02:57:28;;;;;;;1.65;0.93;;;15.90;53.80;;;;;;4910283;29;20075;-46
2022/07/04 02:59:59;;;;;;;1.67;0.80;;;15.90;53.70;;;;;;4908870;29;20041;-47
2022/07/04 03:02:37;;;;;;;1.25;0.70;;;15.90;53.70;;;;;;4913417;29;20040;-49
2022/07/04 03:05:04;;;;;;;1.17;0.90;;;15.80;53.60;;;;;;4913498;29;20083;-47
2022/07/04 03:07:31;;;;;;;1.00;0.75;;;15.80;53.60;;;;;;4910946;29;20092;-47
2022/07/04 03:10:05;;;;;;;1.92;0.90;;;15.80;53.70;;;;;;4911517;29;20480;-48
2022/07/04 03:12:37;;;;;;;1.50;0.65;;;15.70;53.60;;;;;;4898498;29;20407;-46
2022/07/04 03:15:04;;;;;;;0.73;0.73;;;15.70;53.70;;;;;;4912734;29;20111;-45
2022/07/04 03:17:37;;;;;;;2.40;0.95;;;15.70;53.80;;;;;;4913271;29;20044;-46
2022/07/04 03:20:09;;;;;;;0.68;0.65;;;15.60;53.70;;;;;;4910446;29;20465;-48
2022/07/04 03:22:38;;;;;;;1.88;0.85;;;15.60;53.80;;;;;;4913012;29;20123;-46
2022/07/04 03:25:07;;;;;;;0.85;0.80;;;15.60;53.70;;;;;;4909093;29;20108;-46
2022/07/04 03:27:40;;;;;;;0.80;0.60;;;15.60;53.80;;;;;;4913384;29;20078;-47
2022/07/04 03:30:07;;;;;;;1.42;0.77;;;15.50;53.90;;;;;;4913139;29;20570;-46
2022/07/04 03:32:39;;;;;;;0.80;0.80;;;15.50;53.90;;;;;;4916238;29;20048;-46
2022/07/04 03:35:09;;;;;;;2.80;1.35;;;15.50;54.20;;;;;;4916142;29;20036;-50
2022/07/04 03:37:36;;;;;;;0.77;0.77;;;15.50;53.90;;;;;;4914414;29;20115;-47
2022/07/04 03:40:05;;;;;;;0.88;0.75;;;15.50;54.10;;;;;;4914015;29;20063;-51
2022/07/04 03:42:34;;;;;;;1.30;1.00;;;15.40;54.10;;;;;;4916704;29;20052;-50
2022/07/04 03:45:05;;;;;;;1.05;0.85;;;15.40;54.50;;;;;;4915327;29;20051;-50
2022/07/04 03:47:34;;;;;;;1.15;1.10;;;15.40;54.40;;;;;;4914277;29;20068;-50
2022/07/04 03:50:03;;;;;;;1.95;1.10;;;15.40;54.40;;;;;;4910152;29;20504;-51
2022/07/04 03:52:33;;;;;;;1.00;0.77;;;15.30;54.40;;;;;;4916342;29;20032;-48
2022/07/04 03:55:05;;;;;;;1.13;0.93;;;15.40;54.50;;;;;;4917144;29;20386;-50
2022/07/04 03:57:34;;;;;;;2.17;0.80;;;15.30;54.60;;;;;;4910543;29;20036;-50
2022/07/04 04:00:02;;;;;;;1.85;1.67;;;15.30;54.60;;;;;;4915561;29;20532;-50
2022/07/04 04:02:45;;;;;;;1.75;1.20;;;15.30;54.70;;;;;;4916309;29;20064;-50
2022/07/04 04:05:30;;;;;;;1.08;0.95;;;15.30;54.80;;;;;;4916477;29;20489;-46
2022/07/04 04:07:59;;;;;;;1.65;1.30;;;15.30;55.00;;;;;;4911173;29;20484;-49
2022/07/04 04:10:28;;;;;;;1.42;1.00;;;15.30;55.10;;;;;;4902200;29;20060;-49
2022/07/04 04:12:57;;;;;;;2.63;0.98;;;15.30;55.30;;;;;;4914197;29;20496;-47
2022/07/04 04:15:24;;;;;;;1.08;1.05;;;15.30;55.30;;;;;;4909265;29;20048;-47
2022/07/04 04:17:50;;;;;;;0.82;0.82;;;15.40;55.50;;;;;;4896804;29;20052;-46
2022/07/04 04:20:19;;;;;;;1.45;1.17;;;15.30;55.70;;;;;;4908824;29;20040;-50
2022/07/04 04:22:46;;;;;;;0.80;0.80;;;15.40;55.90;;;;;;4908114;29;20040;-49
2022/07/04 04:25:14;;;;;;;2.67;1.10;;;15.40;56.00;;;;;;4897572;29;20066;-47
2022/07/04 04:27:48;;;;;;;2.67;1.38;;;15.40;56.20;;;;;;4908245;29;20096;-47
2022/07/04 04:30:17;;;;;;;2.63;1.30;;;15.40;56.50;;;;;;4908834;29;20074;-50
2022/07/04 04:32:45;;;;;;;1.08;0.98;;;15.50;56.60;;;;;;4914064;29;20071;-45
2022/07/04 04:35:14;;;;;;;1.30;0.98;;;15.60;56.90;;;;;;4904142;29;20056;-51
2022/07/04 04:37:44;;;;;;;1.33;1.15;;;15.60;57.40;;;;;;4914500;29;20068;-50
2022/07/04 04:40:11;;;;;;;1.85;1.00;;;15.60;57.30;;;;;;4914980;29;20044;-46
2022/07/04 04:42:40;;;;;;;3.03;0.93;;;15.60;58.10;;;;;;4910215;29;20075;-47
2022/07/04 04:45:10;;;;;;;1.17;1.00;;;15.70;57.60;;;;;;4908729;29;20040;-47
2022/07/04 04:47:40;;;;;;;0.82;0.82;;;15.70;57.60;;;;;;4914922;29;20044;-47
2022/07/04 04:50:12;;;;;;;1.10;1.00;;;15.80;57.80;;;;;;4914344;29;20771;-49
2022/07/04 04:52:38;;;;;;;1.17;1.08;;;15.90;57.90;;;;;;4915370;29;20419;-50
2022/07/04 04:55:10;;;;;;;3.33;1.70;;;15.90;58.00;;;;;;4912186;29;20474;-47
2022/07/04 04:57:42;;;;;;;3.72;1.70;;;15.90;58.30;;;;;;4915158;29;20107;-48
2022/07/04 05:00:11;;;;;;;2.75;1.45;;;16.00;59.30;;;;;;4914819;29;20075;-46
2022/07/04 05:02:38;;;;;;;1.52;1.35;;;16.10;59.30;;;;;;4910426;29;20597;-49
2022/07/04 05:05:06;;;;;;;2.95;1.48;;;16.10;59.60;;;;;;4909436;29;20708;-47
2022/07/04 05:07:33;;;;;;;1.98;1.52;;;16.30;59.80;;;;;;4914522;29;20044;-46
2022/07/04 05:10:03;;;;;;;1.83;1.15;;;16.30;59.90;;;;;;4916093;29;20131;-47
2022/07/04 05:12:31;;;;;;;2.05;1.77;;;16.40;60.00;;;;;;4910215;29;20040;-46
2022/07/04 05:15:05;;;;;;;3.15;1.52;;;16.60;60.00;;;;;;4915661;29;20055;-47
2022/07/04 05:17:32;;;;;;;4.18;1.90;;;16.60;59.90;;;;;;4915001;29;20496;-50
2022/07/04 05:19:58;;;;;;;4.40;1.63;;;16.70;59.80;;;;;;4913689;29;20045;-46
2022/07/04 05:22:25;;;;;;;2.28;1.60;;;16.80;59.80;;;;;;4908690;29;20093;-47
2022/07/04 05:25:00;;;;;;;2.08;1.38;;;16.90;59.50;;;;;;4915084;29;20543;-50
2022/07/04 05:27:30;;;;;;;1.35;1.25;;;17.10;59.50;;;;;;4914955;29;20103;-50
2022/07/04 05:29:58;;;;;;;3.22;1.33;;;17.20;59.40;;;;;;4912160;29;20360;-50
2022/07/04 05:32:26;;;;;;;4.85;1.33;;;17.20;59.50;;;;;;4914939;29;20036;-50
2022/07/04 05:34:56;;;;;;;3.20;1.58;;;17.30;59.60;;;;;;4915140;29;20048;-51
2022/07/04 05:37:28;;;;;;;1.58;1.02;;;17.50;59.50;;;;;;4910737;29;20047;-50
2022/07/04 05:39:57;;;;;;;2.38;1.42;;;17.50;59.20;;;;;;4912723;29;20048;-50
2022/07/04 05:42:26;;;;;;;3.88;1.20;;;17.60;59.40;;;;;;4898822;29;20103;-51
2022/07/04 05:44:55;;;;;;;2.15;0.95;;;17.70;59.50;;;;;;4914563;29;20052;-50
2022/07/04 05:47:25;;;;;;;2.67;1.10;;;17.80;59.40;;;;;;4914109;29;20048;-50
2022/07/04 05:49:52;;;;;;;2.83;1.27;;;17.90;59.20;;;;;;4910184;29;20044;-50
2022/07/04 05:52:18;;;;;;;2.08;1.02;;;17.90;59.00;;;;;;4913580;29;20071;-45
2022/07/04 05:54:45;;;;;;;1.23;1.00;;;18.00;58.50;;;;;;4914865;29;20567;-50
2022/07/04 05:57:15;;;;;;;1.10;1.02;;;18.10;58.20;;;;;;4913948;29;20091;-50
2022/07/04 05:59:44;;;;;;;2.17;0.70;;;18.20;57.90;;;;;;4906418;29;20036;-46
2022/07/04 06:02:11;;;;;;;2.30;0.90;;;18.30;57.90;;;;;;4913102;29;20072;-50
2022/07/04 06:04:40;;;;;;;2.05;0.93;;;18.40;57.90;;;;;;4914832;29;20051;-47
2022/07/04 06:07:07;;;;;;;1.42;0.90;;;18.50;57.90;;;;;;4913968;29;20424;-50
2022/07/04 06:09:36;;;;;;;0.80;0.80;;;18.50;57.40;;;;;;4911154;29;20586;-49
2022/07/04 06:12:07;;;;;;;0.68;0.65;;;18.60;57.60;;;;;;4911442;29;20040;-46
2022/07/04 06:14:36;;;;;;;2.88;0.88;;;18.60;57.50;;;;;;4914629;29;20080;-46
2022/07/04 06:17:03;;;;;;;1.33;0.75;;;18.80;58.10;;;;;;4913730;29;20064;-50
2022/07/04 06:19:33;;;;;;;2.35;0.70;;;18.80;56.90;;;;;;4908955;29;20036;-48
2022/07/04 06:22:00;;;;;;;0.88;0.60;;;18.80;56.60;;;;;;4913631;29;20099;-47
2022/07/04 06:24:27;;;;;;;1.50;0.77;;;18.90;56.30;;;;;;4914874;29;20044;-47
2022/07/04 06:26:54;;;;;;;1.63;0.75;;;19.00;56.40;;;;;;4911306;29;20568;-49
2022/07/04 06:29:20;;;;;;;1.20;0.77;;;19.00;56.10;;;;;;4908733;29;20069;-50
2022/07/04 06:31:49;;;;;;;1.50;0.30;;;19.10;56.00;;;;;;4913182;29;20123;-50
2022/07/04 06:37:01;;;;;;;1.63;0.80;;;19.20;55.90;;;;;;4913046;29;20090;-46
2022/07/04 06:39:28;;;;;;;2.05;0.60;;;19.20;55.70;;;;;;4911950;29;20048;-48
2022/07/04 06:41:57;;;;;;;3.08;0.75;;;19.30;55.90;;;;;;4913956;29;20032;-49
2022/07/04 06:44:27;;;;;;;1.10;0.60;;;19.30;55.90;;;;;;4914872;29;20055;-47
2022/07/04 06:46:54;;;;;;;1.60;0.70;;;19.40;56.10;;;;;;4909708;29;20044;-50
2022/07/04 06:49:23;;;;;;;3.05;1.08;;;19.40;55.80;;;;;;4914603;29;20040;-48
2022/07/04 06:51:49;;;;;;;2.30;0.65;;;19.50;55.70;;;;;;4914005;29;20092;-47
2022/07/04 06:54:16;;;;;;;2.47;0.95;;;19.60;55.90;;;;;;4914072;29;20127;-50
2022/07/04 06:56:46;;;;;;;4.68;0.80;;;19.60;56.00;;;;;;4908157;29;20579;-50
2022/07/04 06:59:12;;;;;;;1.60;0.88;;;19.70;55.90;;;;;;4913283;29;20044;-51
2022/07/04 07:01:39;;;;;;;1.08;0.70;;;19.70;55.50;;;;;;4913231;29;20437;-47
2022/07/04 07:04:06;;;;;;;1.83;0.60;;;19.80;55.60;;;;;;4915426;29;20127;-49
2022/07/04 07:06:33;;;;;;;4.32;0.80;;;19.80;55.90;;;;;;4912335;29;20412;-47
2022/07/04 07:09:02;;;;;;;2.65;0.88;;;19.90;55.80;;;;;;4916387;29;20044;-47
2022/07/04 07:11:33;;;;;;;3.65;0.80;;;20.00;55.40;;;;;;4912823;29;20052;-47
2022/07/04 07:14:00;;;;;;;1.20;0.80;;;20.00;55.60;;;;;;4917805;29;20048;-47
2022/07/04 07:16:27;;;;;;;3.38;1.00;;;20.00;55.60;;;;;;4913578;29;20036;-47
2022/07/04 07:18:59;;;;;;;4.78;1.48;;;20.00;55.70;;;;;;4916480;29;20146;-51
2022/07/04 07:21:25;;;;;;;2.38;1.20;;;20.10;55.50;;;;;;4916677;29;20040;-51
2022/07/04 07:23:54;;;;;;;3.13;0.70;;;20.20;55.10;;;;;;4912959;29;20057;-50
2022/07/04 07:26:21;;;;;;;7.60;2.28;;;20.20;54.90;;;;;;4911025;29;20040;-51
2022/07/04 07:28:48;;;;;;;3.63;0.80;;;20.20;54.50;;;;;;4916335;29;20080;-51
2022/07/04 07:31:15;;;;;;;13.95;2.88;;;20.30;54.60;;;;;;4909672;29;20048;-50
2022/07/04 07:33:44;;;;;;;9.00;1.90;;;20.40;54.60;;;;;;4912835;29;20040;-51
2022/07/04 07:36:11;;;;;;;1.45;0.70;;;20.40;54.90;;;;;;4897703;29;20044;-51
2022/07/04 07:38:37;;;;;;;3.22;0.68;;;20.50;54.40;;;;;;4917347;29;20512;-51
2022/07/04 07:41:09;;;;;;;2.15;0.88;;;20.50;54.30;;;;;;4916514;29;20096;-48
2022/07/04 07:43:36;;;;;;;8.00;1.48;;;20.60;53.90;;;;;;4913816;29;20512;-50
2022/07/04 07:46:06;;;;;;;4.63;1.48;;;20.60;53.90;;;;;;4912698;29;20642;-51
2022/07/04 07:48:36;;;;;;;5.50;0.98;;;20.70;54.60;;;;;;4917148;29;20056;-51
2022/07/04 07:51:05;;;;;;;3.92;1.42;;;20.70;53.80;;;;;;4917270;29;20041;-47
2022/07/04 07:53:32;;;;;;;6.15;1.35;;;20.80;53.60;;;;;;4910901;29;20074;-50
2022/07/04 07:56:01;;;;;;;1.85;0.80;;;20.80;53.30;;;;;;4915616;29;20127;-49
2022/07/04 07:58:29;;;;;;;3.67;1.10;;;20.90;53.40;;;;;;4916200;29;20048;-48
2022/07/04 08:00:55;;;;;;;3.05;1.33;;;21.00;53.20;;;;;;4912895;29;20080;-47
2022/07/04 08:06:13;;;;;;;4.10;1.60;;;21.00;53.20;;;;;;4914904;29;20119;-49
2022/07/04 08:08:43;;;;;;;3.30;1.20;;;21.10;53.60;;;;;;4916258;29;20581;-50
2022/07/04 08:11:11;;;;;;;3.03;1.55;;;21.10;53.40;;;;;;4910956;29;20095;-48
2022/07/04 08:13:39;;;;;;;2.17;1.10;;;21.20;53.40;;;;;;4914291;29;20041;-51
2022/07/04 08:16:08;;;;;;;2.92;1.60;;;21.20;52.70;;;;;;4915122;29;20062;-46
2022/07/04 08:18:45;;;;;;;2.53;1.48;;;21.20;52.70;;;;;;4915700;29;20064;-47
2022/07/04 08:21:16;;;;;;;7.13;1.85;;;21.30;52.30;;;;;;4900300;29;20044;-47
2022/07/04 08:23:47;;;;;;;3.67;1.20;;;21.30;52.20;;;;;;4912295;29;20041;-50
2022/07/04 08:26:39;;;;;;;4.40;1.38;;;21.30;51.70;;;;;;4907333;29;20043;-48
2022/07/04 08:29:19;;;;;;;2.78;1.40;;;21.40;51.80;;;;;;4911412;29;20044;-48
2022/07/04 08:31:49;;;;;;;3.70;1.33;;;21.40;51.60;;;;;;4912555;29;20048;-47
2022/07/04 08:34:22;;;;;;;2.00;1.15;;;21.50;51.60;;;;;;4907404;29;20532;-51
2022/07/04 08:36:49;;;;;;;3.47;1.25;;;21.50;51.40;;;;;;4915037;29;20081;-47
2022/07/04 08:39:16;;;;;;;3.33;1.00;;;21.60;51.40;;;;;;4913074;29;20044;-47
2022/07/04 08:41:43;;;;;;;3.25;1.30;;;21.60;51.30;;;;;;4911421;29;20036;-46
2022/07/04 08:44:13;;;;;;;2.85;1.35;;;21.60;51.70;;;;;;4916170;29;20055;-50
2022/07/04 08:46:50;;;;;;;1.92;0.95;;;21.70;51.40;;;;;;4914894;29;20059;-47
2022/07/04 08:49:25;;;;;;;3.38;1.13;;;21.70;51.60;;;;;;4911090;29;20071;-50
2022/07/04 08:52:01;;;;;;;3.00;1.00;;;21.80;50.70;;;;;;4904244;29;20104;-48
2022/07/04 09:00:13;;;;;;;2.65;0.82;;;21.90;49.60;;;;;;4913844;29;20044;-49
2022/07/04 09:02:42;;;;;;;2.17;1.20;;;21.90;49.60;;;;;;4898239;29;20043;-50
2022/07/04 09:05:09;;;;;;;1.63;0.70;;;22.00;49.60;;;;;;4909508;29;20080;-49
2022/07/04 09:07:39;;;;;;;2.50;0.95;;;22.00;50.30;;;;;;4895155;29;20041;-50
2022/07/04 09:10:09;;;;;;;1.67;1.10;;;22.00;49.40;;;;;;4896252;29;20059;-46
2022/07/04 09:12:38;;;;;;;7.85;0.75;;;22.10;49.70;;;;;;4895928;29;20044;-47
2022/07/04 09:15:25;;;;;;;3.17;0.95;;;22.10;49.20;;;;;;4895822;29;20143;-50
2022/07/04 09:17:52;;;;;;;1.05;0.98;;;22.20;49.50;;;;;;4899291;29;20143;-47
2022/07/04 09:20:27;;;;;;;2.65;1.00;;;22.20;49.30;;;;;;4896021;29;20048;-47
2022/07/04 09:22:59;;;;;;;1.27;0.85;;;22.30;49.40;;;;;;4895633;29;20040;-47
2022/07/04 09:25:25;;;;;;;1.95;0.80;;;22.30;50.10;;;;;;4894326;29;20505;-46
2022/07/04 09:27:57;;;;;;;2.00;0.93;;;22.40;49.30;;;;;;4894311;29;20059;-46
2022/07/04 09:30:28;;;;;;;1.15;0.60;;;22.40;49.40;;;;;;4894896;29;20047;-48
2022/07/04 09:32:59;;;;;;;1.35;0.70;;;22.50;49.10;;;;;;4895386;29;20131;-47
2022/07/04 09:35:28;;;;;;;2.25;0.80;;;22.50;49.60;;;;;;4894610;29;20040;-47
2022/07/04 09:38:03;;;;;;;1.10;0.60;;;22.60;48.60;;;;;;4895261;29;20045;-48
2022/07/04 09:43:27;;;;;;;1.70;0.57;;;22.70;47.80;;;;;;4877448;29;20057;-47
2022/07/04 09:46:03;;;;;;;2.13;0.60;;;22.80;47.00;;;;;;4888076;29;20045;-46
2022/07/04 09:48:50;;;;;;;1.10;0.30;;;22.80;47.30;;;;;;4895343;29;20104;-46
2022/07/04 09:51:47;;;;;;;0.82;0.47;;;22.90;47.10;;;;;;4895111;29;20049;-46
2022/07/04 09:54:21;;;;;;;2.35;0.73;;;22.90;47.10;;;;;;4878218;29;20060;-48
2022/07/04 09:56:52;;;;;;;2.85;0.55;;;23.00;46.40;;;;;;4892860;29;20049;-46
2022/07/04 09:59:23;;;;;;;1.25;0.90;;;23.00;46.20;;;;;;4888384;29;20505;-48
2022/07/04 10:01:53;;;;;;;1.35;0.70;;;23.00;46.40;;;;;;4895441;29;20049;-47
2022/07/04 10:04:25;;;;;;;;;;;23.10;47.60;;;;;;4874262;29;20049;-48
2022/07/04 10:06:52;;;;;;;1.75;0.77;;;23.30;47.50;;;;;;4894595;29;20518;-48
2022/07/04 10:09:21;;;;;;;1.65;0.73;;;23.30;47.30;;;;;;4888013;29;20052;-48
2022/07/04 10:11:50;;;;;;;3.33;1.08;;;23.40;46.60;;;;;;4894260;29;20052;-47
2022/07/04 10:14:19;;;;;;;3.08;1.00;;;23.50;47.10;;;;;;4894619;29;20100;-51
2022/07/04 10:16:48;;;;;;;1.55;0.95;;;23.60;46.90;;;;;;4893941;29;20497;-46
2022/07/04 10:19:17;;;;;;;1.48;1.20;;;23.70;46.00;;;;;;4896007;29;20114;-48
2022/07/04 10:21:46;;;;;;;2.72;0.90;;;23.80;46.00;;;;;;4894136;29;20599;-47
2022/07/04 10:24:16;;;;;;;2.47;0.75;;;24.00;46.40;;;;;;4895599;29;20071;-49
2022/07/04 10:26:43;;;;;;;3.50;0.60;;;24.00;46.00;;;;;;4894289;29;20497;-47
2022/07/04 10:29:18;;;;;;;1.33;0.80;;;24.10;45.90;;;;;;4894473;29;20040;-51
2022/07/04 10:31:44;;;;;;;0.90;0.80;;;24.20;45.00;;;;;;4893982;29;20053;-52
2022/07/04 10:34:11;;;;;;;0.95;0.60;;;24.30;44.10;;;;;;4895825;29;20044;-47
2022/07/04 10:36:38;;;;;;;2.45;0.70;;;24.40;44.00;;;;;;4894286;29;20051;-50
2022/07/04 10:39:07;;;;;;;0.95;0.52;;;24.40;43.30;;;;;;4897059;29;20040;-49
2022/07/04 10:41:59;;;;;;;2.58;0.60;;;24.50;43.00;;;;;;4897389;29;20096;-51
2022/07/04 10:44:26;;;;;;;1.38;0.63;;;24.50;42.80;;;;;;4898298;29;20048;-47
2022/07/04 10:46:57;;;;;;;1.95;0.55;;;24.60;43.00;;;;;;4898116;29;20080;-50
2022/07/04 10:49:27;;;;;;;3.60;0.70;;;24.60;42.80;;;;;;4898825;29;20053;-51
2022/07/04 10:52:12;;;;;;;1.63;0.47;;;24.70;43.20;;;;;;4895001;29;20060;-46
2022/07/04 10:54:44;;;;;;;3.92;0.77;;;24.70;43.30;;;;;;4893014;29;20370;-49
2022/07/04 10:57:16;;;;;;;1.83;0.60;;;24.90;43.20;;;;;;4898316;29;20077;-49
2022/07/04 10:59:56;;;;;;;2.90;0.70;;;24.80;43.20;;;;;;4896059;29;20088;-49
2022/07/04 11:02:35;;;;;;;2.28;0.60;;;24.90;42.10;;;;;;4894846;29;20049;-47
2022/07/04 11:05:10;;;;;;;2.05;0.57;;;24.90;42.60;;;;;;4897577;29;20053;-49
2022/07/04 11:07:40;;;;;;;0.77;0.77;;;24.90;41.90;;;;;;4898277;29;20056;-50
2022/07/04 11:10:13;;;;;;;0.68;0.60;;;24.90;41.60;;;;;;4897865;29;20111;-49
2022/07/04 11:12:54;;;;;;;1.92;0.75;;;24.90;41.20;;;;;;4897574;29;20579;-52
2022/07/04 11:15:30;;;;;;;3.13;1.25;;;24.90;40.70;;;;;;4889783;29;20059;-50
2022/07/04 11:18:14;;;;;;;3.42;0.63;;;24.90;41.00;;;;;;4898458;29;20045;-50
2022/07/04 11:20:51;;;;;;;0.77;0.43;;;24.90;40.80;;;;;;4897969;29;20048;-48
2022/07/04 11:23:23;;;;;;;4.18;0.50;;;24.90;41.20;;;;;;4898063;29;20067;-47
2022/07/04 11:25:55;;;;;;;3.13;0.63;;;25.00;41.40;;;;;;4897307;29;20048;-50
2022/07/04 11:28:28;;;;;;;1.30;0.50;;;25.10;41.00;;;;;;4897126;29;20044;-47
2022/07/04 11:31:13;;;;;;;1.15;0.60;;;25.10;41.70;;;;;;4895297;29;20497;-47
2022/07/04 11:33:41;;;;;;;1.75;0.60;;;25.30;41.00;;;;;;4897814;29;20516;-48
2022/07/04 11:36:14;;;;;;;1.42;0.55;;;25.40;40.60;;;;;;4895552;29;20049;-49
2022/07/04 11:38:46;;;;;;;1.75;0.55;;;25.40;40.60;;;;;;4895223;29;20049;-47
2022/07/04 11:46:51;;;;;;;1.08;0.40;;;25.80;39.80;;;;;;4896602;29;20048;-47
2022/07/04 11:49:18;;;;;;;2.30;0.50;;;25.90;39.70;;;;;;4897686;29;20043;-46
2022/07/04 11:51:47;;;;;;;2.03;0.30;;;26.00;40.20;;;;;;4897207;29;20045;-48
2022/07/04 11:54:18;;;;;;;2.75;0.50;;;26.10;39.90;;;;;;4897337;29;20040;-49
2022/07/04 11:57:29;;;;;;;2.45;0.47;;;26.30;39.40;;;;;;4894510;29;20067;-48
2022/07/04 12:00:05;;;;;;;1.27;0.50;;;26.50;38.20;;;;;;4886319;29;20044;-52
2022/07/04 12:02:43;;;;;;;1.73;0.43;;;26.60;38.60;;;;;;4897910;29;20136;-50
2022/07/04 12:05:11;;;;;;;2.63;0.50;;;26.70;39.10;;;;;;4893695;29;20049;-53
2022/07/04 12:07:43;;;;;;;0.80;0.50;;;26.80;38.20;;;;;;4897217;29;20047;-51
2022/07/04 12:10:31;;;;;;;1.00;0.60;;;26.90;37.50;;;;;;4891532;29;20048;-50
2022/07/04 12:13:07;;;;;;;1.08;0.70;;;26.90;37.30;;;;;;4897369;29;20044;-51
2022/07/04 12:15:45;;;;;;;1.25;0.60;;;26.90;36.40;;;;;;4895985;29;20100;-49
2022/07/04 12:18:18;;;;;;;1.50;0.60;;;26.90;36.20;;;;;;4897546;29;20041;-50
2022/07/04 12:20:50;;;;;;;2.85;0.60;;;26.90;36.00;;;;;;4897783;29;20041;-49
2022/07/04 12:23:20;;;;;;;0.70;0.40;;;26.90;36.60;;;;;;4897792;29;20136;-50
2022/07/04 12:25:49;;;;;;;2.13;0.50;;;26.90;36.70;;;;;;4895971;29;20049;-50
2022/07/04 12:28:17;;;;;;;0.70;0.30;;;27.00;36.40;;;;;;4897005;29;20564;-51
2022/07/04 12:30:55;;;;;;;1.95;0.70;;;27.10;36.70;;;;;;4896416;29;20397;-52
2022/07/04 12:33:25;;;;;;;0.60;0.60;;;27.20;36.60;;;;;;4896512;29;20044;-47
2022/07/04 12:36:19;;;;;;;0.65;0.63;;;27.30;36.90;;;;;;4884138;29;20105;-50
2022/07/04 12:38:46;;;;;;;1.50;0.60;;;27.50;36.50;;;;;;4891850;29;20049;-48
2022/07/04 12:41:15;;;;;;;2.22;1.02;;;27.60;37.20;;;;;;4895636;29;20087;-48
2022/07/04 12:43:51;;;;;;;2.58;0.50;;;27.70;35.80;;;;;;4893596;29;20044;-51
2022/07/04 12:46:26;;;;;;;2.33;0.85;;;28.00;34.90;;;;;;4888777;29;20045;-48
2022/07/04 12:48:57;;;;;;;1.27;0.50;;;28.10;35.30;;;;;;4897336;29;20136;-51
2022/07/04 12:51:32;;;;;;;1.65;0.80;;;28.30;36.50;;;;;;4895414;29;20044;-48
2022/07/04 12:54:06;;;;;;;1.23;0.50;;;28.40;36.20;;;;;;4896343;29;20127;-50
2022/07/04 12:56:34;;;;;;;0.45;0.40;;;28.60;35.10;;;;;;4895925;29;20040;-52
2022/07/04 12:59:06;;;;;;;1.30;0.60;;;28.80;35.20;;;;;;4896740;29;20148;-51
2022/07/04 13:01:41;;;;;;;2.05;0.73;;;28.90;34.30;;;;;;4894494;29;20075;-52
2022/07/04 13:04:16;;;;;;;0.60;0.60;;;29.10;34.00;;;;;;4896321;29;20058;-52
2022/07/04 13:06:43;;;;;;;2.50;0.65;;;29.10;33.90;;;;;;4895341;29;20501;-51
2022/07/04 13:09:17;;;;;;;0.43;0.30;;;29.20;34.20;;;;;;4896470;29;20096;-51
2022/07/04 13:14:32;;;;;;;0.82;0.40;;;29.10;33.70;;;;;;4896293;29;20067;-52
2022/07/04 13:16:58;;;;;;;1.30;0.43;;;29.00;33.90;;;;;;4891588;29;20073;-49
2022/07/04 13:19:25;;;;;;;8.52;0.65;;;29.00;33.70;;;;;;4896283;29;20471;-50
2022/07/04 13:21:56;;;;;;;3.13;0.45;;;29.10;33.60;;;;;;4896118;29;20044;-49
2022/07/04 13:24:31;;;;;;;0.40;0.30;;;29.10;33.50;;;;;;5076129;28;20415;-50
2022/07/04 13:26:58;;;;;;;0.47;0.40;;;29.00;33.50;;;;;;5046383;28;20049;-52
2022/07/04 13:29:25;;;;;;;2.00;0.60;;;29.00;33.30;;;;;;5048370;28;20046;-51
2022/07/04 13:31:55;;;;;;;1.08;0.50;;;29.00;33.40;;;;;;5052132;28;20049;-50